ACRAWX current weather conditions

sailwx.info

Wind from 333 at 5 knots gusting 7

Air temperature 11.0° C
Dewpoint 8.9° C
Water temperature -7999.0° C

Last reported at 2020-Jan-21 03:30 UTC.
Time now 2020-Jan-21 05:09 UTC

Location: N 27°07' W 080°26'.
View on Google Maps.

See reports from other nearby stations

  
Tides and Currents Weather Stations Pressure Air Temp Water Temp Dewpoint Dewpoint Depression Visibility Wind Speed Wind Dir Waves Ship Positions
date/time (UTC)wind fromknots sea level pressurealtimeterstation pressurevisibilityair tempwater tempwave heightnotes
2020-Jan-21 03:30 333 5 gusting 7 11.0-7999.0
2020-Jan-21 03:15 331 5 gusting 7 11.0-7999.0
2020-Jan-21 03:00 333 5 gusting 8 11.0-7999.0
2020-Jan-21 02:45 335 5 gusting 7 11.0-7999.0
2020-Jan-21 02:30 335 4 gusting 7 11.0-7999.0
2020-Jan-21 02:15 339 6 gusting 7 11.2-7999.0
2020-Jan-21 02:00 335 6 gusting 8 11.1-7999.0
2020-Jan-21 01:30 334 4 gusting 5 11.1-7999.0
2020-Jan-21 01:15 200 4 gusting 7 11.8-7999.0
2020-Jan-21 01:00 122 4 gusting 7 12.2-7999.0
2020-Jan-21 00:45 215 5 gusting 8 12.7-7999.0
2020-Jan-21 00:30 105 6 gusting 10 12.7-7999.0
2020-Jan-21 00:15 150 5 gusting 6 12.6-7999.0
2020-Jan-21 00:00 040 5 gusting 8 13.2-7999.0
2020-Jan-20 23:45 021 5 gusting 8 13.3-7999.0
2020-Jan-20 23:30 016 5 gusting 7 13.5-7999.0
2020-Jan-20 23:15 015 6 gusting 7 13.9-7999.0
2020-Jan-20 23:00 021 5 gusting 7 14.5-7999.0
2020-Jan-20 22:45 019 5 gusting 7 15.1-7999.0
2020-Jan-20 22:30 018 4 gusting 7 15.9-7999.0
2020-Jan-20 22:15 036 6 gusting 10 17.2-7999.0
2020-Jan-20 22:00 020 7 gusting 11 17.9-7999.0
2020-Jan-20 21:45 093 8 gusting 11 18.6-7999.0
2020-Jan-20 21:30 113 8 gusting 12 18.9-7999.0
2020-Jan-20 21:15 134 7 gusting 11 19.3-7999.0
2020-Jan-20 20:45 258 7 gusting 12 19.8-7999.0
2020-Jan-20 20:30 234 8 gusting 11 20.1-7999.0
2020-Jan-20 20:15 200 8 gusting 11 20.2-7999.0
2020-Jan-20 20:00 184 8 gusting 11 20.4-7999.0
2020-Jan-20 19:45 202 7 gusting 12 20.3-7999.0
2020-Jan-20 19:30 289 6 gusting 9 20.2-7999.0
2020-Jan-20 19:15 280 6 gusting 10 20.0-7999.0
2020-Jan-20 19:00 299 7 gusting 12 19.8-7999.0
2020-Jan-20 18:45 266 7 gusting 12 19.8-7999.0
2020-Jan-20 18:30 294 8 gusting 12 19.7-7999.0
2020-Jan-20 18:15 287 8 gusting 12 19.5-7999.0
2020-Jan-20 18:00 267 8 gusting 12 19.3-7999.0
2020-Jan-20 17:45 272 8 gusting 13 18.8-7999.0
2020-Jan-20 17:30 307 8 gusting 11 18.5-7999.0
2020-Jan-20 17:15 305 7 gusting 13 18.3-7999.0
2020-Jan-20 16:45 252 8 gusting 11 17.9-7999.0
2020-Jan-20 16:30 258 8 gusting 11 17.6-7999.0
2020-Jan-20 16:15 273 6 gusting 10 17.2-7999.0
2020-Jan-20 16:00 194 7 gusting 10 16.3-7999.0
2020-Jan-20 15:45 211 7 gusting 11 16.0-7999.0
2020-Jan-20 15:30 266 7 gusting 11 15.4-7999.0
2020-Jan-20 15:15 312 9 gusting 12 15.1-7999.0
2020-Jan-20 15:00 328 9 gusting 13 15.3-7999.0
2020-Jan-20 14:45 327 9 gusting 12 15.3-7999.0
2020-Jan-20 14:30 323 9 gusting 13 15.7-7999.0
2020-Jan-20 14:15 302 9 gusting 12 15.8-7999.0
2020-Jan-20 14:00 276 9 gusting 13 15.8-7999.0
2020-Jan-20 13:45 177 7 gusting 11 15.7-7999.0
2020-Jan-20 13:30 289 8 gusting 11 15.6-7999.0
2020-Jan-20 13:15 299 7 gusting 10 15.6-7999.0
2020-Jan-20 12:45 171 8 gusting 11 15.6-7999.0
2020-Jan-20 12:30 270 7 gusting 9 15.6-7999.0
2020-Jan-20 12:15 258 7 gusting 10 15.7-7999.0
2020-Jan-20 12:00 173 8 gusting 11 15.9-7999.0
2020-Jan-20 11:45 165 7 gusting 12 16.0-7999.0
2020-Jan-20 11:30 165 8 gusting 12 16.2-7999.0
2020-Jan-20 11:15 134 10 gusting 14 16.4-7999.0
2020-Jan-20 10:45 044 7 gusting 11 17.3-7999.0
2020-Jan-20 10:30 162 7 gusting 10 17.5-7999.0
2020-Jan-20 10:15 041 6 gusting 9 17.8-7999.0
2020-Jan-20 10:00 053 7 gusting 11 17.8-7999.0
2020-Jan-20 09:45 149 6 gusting 11 18.7-7999.0
2020-Jan-20 09:30 296 3 gusting 4 19.0-7999.0
2020-Jan-20 09:15 298 3 gusting 4 19.0-7999.0
2020-Jan-20 09:00 278 2 gusting 4 18.8-7999.0
2020-Jan-20 08:45 278 2 gusting 3 18.8-7999.0
2020-Jan-20 08:30 274 2 gusting 3 18.9-7999.0
2020-Jan-20 08:15 280 2 gusting 3 19.2-7999.0
2020-Jan-20 08:00 272 2 gusting 4 19.4-7999.0
2020-Jan-20 07:45 258 3 gusting 4 19.1-7999.0
2020-Jan-20 07:30 263 3 gusting 4 19.4-7999.0
2020-Jan-20 07:15 264 2 gusting 4 19.5-7999.0
2020-Jan-20 06:45 262 4 gusting 6 19.9-7999.0
2020-Jan-20 06:30 247 4 gusting 5 19.9-7999.0
2020-Jan-20 06:15 236 3 gusting 5 19.9-7999.0
2020-Jan-20 06:00 226 2 gusting 3 20.1-7999.0
2020-Jan-20 05:45 232 2 gusting 4 20.2-7999.0
2020-Jan-20 05:30 234 2 gusting 3 20.1-7999.0
2020-Jan-20 05:15 234 3 gusting 4 20.0-7999.0
2020-Jan-20 05:00 222 2 gusting 3 20.1-7999.0
2020-Jan-20 04:45 229 2 gusting 2 20.3-7999.0
2020-Jan-20 04:30 227 2 gusting 2 20.2-7999.0
2020-Jan-20 04:15 232 1 gusting 2 20.2-7999.0
2020-Jan-20 03:30 229 2 gusting 3 21.1-7999.0
2020-Jan-20 03:15 256 3 gusting 4 21.2-7999.0
2020-Jan-20 02:45 274 5 gusting 7 21.6-7999.0
2020-Jan-20 02:30 281 5 gusting 7 21.7-7999.0
2020-Jan-20 02:15 274 5 gusting 7 21.9-7999.0
2020-Jan-20 01:45 270 6 gusting 9 22.2-7999.0
2020-Jan-20 01:30 261 5 gusting 8 22.1-7999.0
2020-Jan-20 01:15 261 5 gusting 7 22.2-7999.0
2020-Jan-20 01:00 262 6 gusting 8 22.0-7999.0
2020-Jan-20 00:45 264 4 gusting 6 21.4-7999.0
2020-Jan-20 00:30 267 3 gusting 4 21.2-7999.0
2020-Jan-20 00:15 259 4 gusting 5 20.8-7999.0
2020-Jan-20 00:00 246 2 gusting 3 20.3-7999.0
2020-Jan-19 23:45 262 1 gusting 2 20.9-7999.0
2020-Jan-19 23:30 266 2 gusting 2 22.0-7999.0
2020-Jan-19 23:15 251 1 gusting 2 22.4-7999.0
2020-Jan-19 22:45 274 2 gusting 3 23.7-7999.0
2020-Jan-19 22:30 240 3 gusting 4 24.8-7999.0
2020-Jan-19 22:15 237 4 gusting 7 26.1-7999.0
2020-Jan-19 21:45 243 5 gusting 9 27.5-7999.0
2020-Jan-19 21:30 240 6 gusting 9 27.5-7999.0
2020-Jan-19 21:15 244 6 gusting 10 26.9-7999.0
2020-Jan-19 21:00 244 7 gusting 11 27.5-7999.0
2020-Jan-19 20:45 238 8 gusting 13 27.7-7999.0
2020-Jan-19 20:30 234 8 gusting 13 27.7-7999.0
2020-Jan-19 20:15 229 8 gusting 12 28.1-7999.0
2020-Jan-19 20:00 226 7 gusting 12 27.7-7999.0
2020-Jan-19 19:45 226 6 gusting 12 27.7-7999.0
2020-Jan-19 19:30 232 7 gusting 11 27.8-7999.0
2020-Jan-19 19:15 238 8 gusting 12 27.4-7999.0
2020-Jan-19 18:45 237 9 gusting 14 27.4-7999.0
2020-Jan-19 18:30 243 9 gusting 12 27.2-7999.0
2020-Jan-19 18:15 250 9 gusting 14 26.6-7999.0
2020-Jan-19 18:00 251 7 gusting 12 26.9-7999.0
2020-Jan-19 17:45 219 7 gusting 11 26.7-7999.0
2020-Jan-19 17:30 197 7 gusting 13 26.8-7999.0
2020-Jan-19 17:15 206 6 gusting 12 26.4-7999.0
2020-Jan-19 17:00 204 6 gusting 13 26.1-7999.0
2020-Jan-19 16:45 199 7 gusting 11 25.2-7999.0
2020-Jan-19 16:30 192 8 gusting 12 25.2-7999.0
2020-Jan-19 16:15 184 9 gusting 13 24.9-7999.0
2020-Jan-19 16:00 177 10 gusting 15 24.8-7999.0
2020-Jan-19 15:45 172 10 gusting 14 24.4-7999.0
2020-Jan-19 15:30 178 11 gusting 16 24.1-7999.0
2020-Jan-19 15:15 169 10 gusting 15 24.0-7999.0
2020-Jan-19 14:45 161 8 gusting 11 22.2-7999.0
2020-Jan-19 14:30 174 7 gusting 9 21.4-7999.0
2020-Jan-19 14:15 172 6 gusting 9 20.8-7999.0
2020-Jan-19 14:00 177 5 gusting 7 19.8-7999.0
2020-Jan-19 13:45 181 5 gusting 7 19.3-7999.0
2020-Jan-19 13:30 187 3 gusting 7 18.4-7999.0
2020-Jan-19 13:15 196 2 gusting 4 17.4-7999.0
2020-Jan-19 12:45 176 4 gusting 5 15.8-7999.0
2020-Jan-19 12:30 158 4 gusting 5 15.4-7999.0
2020-Jan-19 12:15 179 3 gusting 4 15.1-7999.0
2020-Jan-19 12:00 179 2 gusting 3 14.9-7999.0
2020-Jan-19 11:45 196 2 gusting 3 14.6-7999.0
2020-Jan-19 11:30 226 2 gusting 2 14.9-7999.0
2020-Jan-19 11:15 224 2 gusting 2 15.1-7999.0
2020-Jan-19 11:00 196 1 gusting 2 15.3-7999.0
2020-Jan-19 10:45 187 1 gusting 2 15.4-7999.0
2020-Jan-19 10:30 182 2 gusting 4 15.5-7999.0
2020-Jan-19 10:15 179 1 gusting 2 15.1-7999.0
2020-Jan-19 10:00 178 1 gusting 2 15.5-7999.0
2020-Jan-19 09:45 174 2 gusting 3 15.7-7999.0
2020-Jan-19 09:30 153 2 gusting 3 15.8-7999.0
2020-Jan-19 09:15 144 2 gusting 3 15.4-7999.0
2020-Jan-19 09:00 141 3 gusting 3 15.3-7999.0
2020-Jan-19 08:45 144 2 gusting 2 15.3-7999.0
2020-Jan-19 08:30 150 2 gusting 3 15.4-7999.0
2020-Jan-19 08:15 215 1 gusting 2 15.6-7999.0
2020-Jan-19 08:00 244 0 gusting 0 15.2-7999.0
2020-Jan-19 07:45 244 15.5-7999.0
2020-Jan-19 07:30 244 16.0-7999.0
2020-Jan-19 07:15 244 15.8-7999.0
2020-Jan-19 07:00 244 16.3-7999.0
2020-Jan-19 06:45 275 0 gusting 1 16.5-7999.0
2020-Jan-19 06:30 317 1 gusting 1 16.6-7999.0
2020-Jan-19 06:15 325 1 gusting 2 16.5-7999.0
2020-Jan-19 06:00 325 0 gusting 1 16.4-7999.0
2020-Jan-19 05:45 325 0 gusting 0 16.5-7999.0
2020-Jan-19 05:30 325 16.6-7999.0
2020-Jan-19 05:15 325 0 gusting 1 16.6-7999.0
2020-Jan-19 05:00 313 1 gusting 2 16.5-7999.0